createdAt,value
2019-03-19T00:00:56.161Z,10.98
2019-03-19T00:02:01.416Z,11.00
2019-03-19T00:03:06.706Z,11.22
2019-03-19T00:04:11.468Z,8.10
2019-03-19T00:05:16.443Z,12.85
2019-03-19T00:06:21.968Z,9.60
2019-03-19T00:07:27.242Z,13.75
2019-03-19T00:08:32.497Z,7.87
2019-03-19T00:09:37.506Z,10.75
2019-03-19T00:10:42.787Z,7.37
2019-03-19T00:11:47.764Z,11.38
2019-03-19T00:12:53.148Z,12.30
2019-03-19T00:13:58.212Z,10.03
2019-03-19T00:15:02.741Z,9.85
2019-03-19T00:16:07.727Z,12.88
2019-03-19T00:17:12.676Z,10.93
2019-03-19T00:18:17.137Z,11.08
2019-03-19T00:19:22.621Z,9.43
2019-03-19T00:20:27.696Z,7.28
2019-03-19T00:21:32.884Z,13.15
2019-03-19T00:22:37.678Z,11.88
2019-03-19T00:23:43.220Z,10.32
2019-03-19T00:24:48.190Z,9.03
2019-03-19T00:25:53.339Z,10.90
2019-03-19T00:26:58.619Z,12.25
2019-03-19T00:28:03.765Z,12.23
2019-03-19T00:29:09.028Z,9.15
2019-03-19T00:30:14.171Z,11.48
2019-03-19T00:31:19.160Z,11.60
2019-03-19T00:32:24.394Z,10.85
2019-03-19T00:33:29.384Z,8.65
2019-03-19T00:34:34.369Z,9.03
2019-03-19T00:35:39.633Z,12.20
2019-03-19T00:36:44.362Z,12.53
2019-03-19T00:37:49.679Z,9.80
2019-03-19T00:38:54.383Z,8.90
2019-03-19T00:39:59.709Z,8.93
2019-03-19T00:41:04.693Z,11.65
2019-03-19T00:42:09.667Z,9.08
2019-03-19T00:43:14.899Z,10.58
2019-03-19T00:44:20.073Z,11.88
2019-03-19T00:45:25.409Z,11.28
2019-03-19T00:46:30.788Z,11.28
2019-03-19T00:47:36.009Z,9.10
2019-03-19T00:48:41.519Z,10.20
2019-03-19T00:49:46.596Z,6.33
2019-03-19T00:50:51.458Z,9.15
2019-03-19T00:51:56.508Z,10.70
2019-03-19T00:53:01.730Z,11.08
2019-03-19T00:54:06.423Z,12.40
2019-03-19T00:55:11.140Z,12.73
2019-03-19T00:56:16.105Z,9.83
2019-03-19T00:57:20.849Z,10.35
2019-03-19T00:58:25.919Z,8.45
2019-03-19T00:59:31.177Z,11.25
2019-03-19T01:00:36.716Z,15.40
2019-03-19T01:01:41.672Z,10.78
2019-03-19T01:02:46.700Z,11.12
2019-03-19T01:03:51.773Z,17.00
2019-03-19T01:04:56.749Z,12.05
2019-03-19T01:06:01.745Z,7.83
2019-03-19T01:07:06.486Z,14.25
2019-03-19T01:08:11.476Z,11.55
2019-03-19T01:09:17.029Z,12.37
2019-03-19T01:10:22.243Z,9.63
2019-03-19T01:11:27.499Z,18.90
2019-03-19T01:12:32.219Z,13.13
2019-03-19T01:13:37.216Z,16.27
2019-03-19T01:14:42.299Z,12.05
2019-03-19T01:15:47.610Z,14.10
2019-03-19T01:16:53.278Z,13.53
2019-03-19T01:17:58.236Z,14.18
2019-03-19T01:19:02.970Z,11.85
2019-03-19T01:20:09.918Z,9.75
2019-03-19T01:21:15.520Z,9.78
2019-03-19T01:22:20.822Z,16.73
2019-03-19T01:23:25.273Z,13.20
2019-03-19T01:24:30.139Z,10.53
2019-03-19T01:25:35.392Z,13.10
2019-03-19T01:26:40.372Z,14.47
2019-03-19T01:27:45.361Z,9.23
2019-03-19T01:28:51.030Z,12.07
2019-03-19T01:29:56.279Z,12.15
2019-03-19T01:31:01.303Z,7.85
2019-03-19T01:32:06.023Z,10.75
2019-03-19T01:33:10.739Z,9.40
2019-03-19T01:34:16.050Z,13.00
2019-03-19T01:35:21.095Z,9.48
2019-03-19T01:36:26.623Z,8.95
2019-03-19T01:37:32.159Z,11.12
2019-03-19T01:38:37.147Z,8.90
2019-03-19T01:39:42.742Z,8.75
2019-03-19T01:40:47.701Z,12.03
2019-03-19T01:41:53.009Z,16.15
2019-03-19T01:42:58.268Z,12.13
2019-03-19T01:44:03.251Z,11.97
2019-03-19T01:45:08.526Z,14.68
2019-03-19T01:46:13.261Z,12.65
2019-03-19T01:47:18.257Z,13.65
2019-03-19T01:48:23.521Z,14.23
2019-03-19T01:49:29.078Z,11.55
2019-03-19T01:50:34.366Z,14.98
2019-03-19T01:51:39.384Z,16.60
2019-03-19T01:52:44.375Z,13.70
2019-03-19T01:53:49.070Z,15.98
2019-03-19T01:54:53.854Z,15.25
2019-03-19T01:56:05.108Z,17.23
2019-03-19T01:57:05.937Z,15.83
2019-03-19T01:58:11.039Z,12.37
2019-03-19T01:59:16.001Z,10.08
2019-03-19T02:00:21.190Z,9.60
2019-03-19T02:01:25.870Z,14.55
2019-03-19T02:02:30.871Z,9.98
2019-03-19T02:03:36.416Z,13.03
2019-03-19T02:04:41.467Z,12.60
2019-03-19T02:05:47.009Z,11.90
2019-03-19T02:06:52.091Z,16.48
2019-03-19T02:07:57.413Z,11.97
2019-03-19T02:09:02.490Z,12.98
2019-03-19T02:10:08.359Z,12.18
2019-03-19T02:11:13.888Z,9.60
2019-03-19T02:12:18.566Z,14.38
2019-03-19T02:13:23.021Z,12.35
2019-03-19T02:14:28.736Z,8.50
2019-03-19T02:15:34.046Z,15.68
2019-03-19T02:16:39.036Z,9.48
2019-03-19T02:17:44.000Z,9.95
2019-03-19T02:18:49.563Z,11.28
2019-03-19T02:19:54.510Z,12.45
2019-03-19T02:20:59.539Z,12.98
2019-03-19T02:22:04.027Z,13.00
2019-03-19T02:23:09.270Z,7.10
2019-03-19T02:24:13.975Z,13.00
2019-03-19T02:25:19.236Z,12.75
2019-03-19T02:26:24.297Z,10.50
2019-03-19T02:27:29.758Z,9.55
2019-03-19T02:28:35.272Z,11.30
2019-03-19T02:29:40.534Z,13.20
2019-03-19T02:30:45.521Z,14.28
2019-03-19T02:31:50.509Z,12.98
2019-03-19T02:32:55.811Z,13.43
2019-03-19T02:34:01.271Z,10.55
2019-03-19T02:35:06.234Z,10.40
2019-03-19T02:36:11.775Z,18.98
2019-03-19T02:37:17.054Z,9.95
2019-03-19T02:38:22.118Z,11.97
2019-03-19T02:39:27.716Z,10.08
2019-03-19T02:40:33.187Z,11.78
2019-03-19T02:41:37.891Z,11.48
2019-03-19T02:42:42.875Z,13.75
2019-03-19T02:43:47.589Z,14.83
2019-03-19T02:44:56.134Z,14.75
2019-03-19T02:46:01.681Z,14.98
2019-03-19T02:47:06.965Z,11.55
2019-03-19T02:48:11.695Z,14.95
2019-03-19T02:49:16.795Z,15.15
2019-03-19T02:50:22.597Z,10.40
2019-03-19T02:51:27.566Z,8.28
2019-03-19T02:52:32.888Z,9.98
2019-03-19T02:53:37.917Z,13.22
2019-03-19T02:54:43.153Z,12.53
2019-03-19T02:55:48.152Z,8.40
2019-03-19T02:56:53.196Z,10.95
2019-03-19T02:57:58.153Z,11.55
2019-03-19T02:59:03.192Z,11.75
2019-03-19T03:00:08.243Z,13.10
2019-03-19T03:01:13.239Z,12.25
2019-03-19T03:02:18.262Z,12.25
2019-03-19T03:03:22.979Z,11.15
2019-03-19T03:04:28.010Z,10.00
2019-03-19T03:05:32.750Z,16.80
2019-03-19T03:06:38.045Z,9.48
2019-03-19T03:07:43.071Z,10.78
2019-03-19T03:08:48.381Z,9.13
2019-03-19T03:09:53.381Z,8.23
2019-03-19T03:10:58.374Z,11.05
2019-03-19T03:12:03.349Z,16.40
2019-03-19T03:13:08.354Z,10.80
2019-03-19T03:14:13.344Z,11.63
2019-03-19T03:15:18.351Z,8.03
2019-03-19T03:16:23.956Z,11.33
2019-03-19T03:17:28.915Z,10.60
2019-03-19T03:18:33.590Z,11.50
2019-03-19T03:19:38.680Z,14.85
2019-03-19T03:20:43.735Z,17.40
2019-03-19T03:21:49.033Z,11.97
2019-03-19T03:22:54.083Z,14.28
2019-03-19T03:23:59.324Z,10.38
2019-03-19T03:25:04.931Z,12.65
2019-03-19T03:26:09.638Z,11.45
2019-03-19T03:27:14.383Z,13.62
2019-03-19T03:28:19.406Z,11.53
2019-03-19T03:29:24.507Z,9.63
2019-03-19T03:30:29.886Z,11.18
2019-03-19T03:31:35.182Z,12.80
2019-03-19T03:32:40.477Z,13.75
2019-03-19T03:33:45.753Z,14.70
2019-03-19T03:34:52.128Z,12.55
2019-03-19T03:35:57.654Z,10.05
2019-03-19T03:37:02.679Z,9.18
2019-03-19T03:38:07.719Z,8.75
2019-03-19T03:39:13.127Z,12.50
2019-03-19T03:40:18.214Z,10.78
2019-03-19T03:41:23.194Z,14.38
2019-03-19T03:42:28.433Z,9.18
2019-03-19T03:43:33.188Z,12.10
2019-03-19T03:44:38.836Z,11.95
2019-03-19T03:45:43.945Z,7.83
2019-03-19T03:46:49.235Z,16.67
2019-03-19T03:47:54.201Z,10.03
2019-03-19T03:48:59.174Z,11.88
2019-03-19T03:50:03.968Z,10.43
2019-03-19T03:51:09.018Z,10.53
2019-03-19T03:52:13.697Z,11.00
2019-03-19T03:53:18.926Z,9.63
2019-03-19T03:54:24.459Z,12.95
2019-03-19T03:55:31.267Z,10.72
2019-03-19T03:56:36.094Z,11.50
2019-03-19T03:57:40.829Z,10.68
2019-03-19T03:58:59.628Z,13.28
2019-03-19T03:59:53.085Z,13.28
2019-03-19T04:00:58.656Z,12.05
2019-03-19T04:02:03.132Z,10.13
2019-03-19T04:03:07.874Z,8.58
2019-03-19T04:04:12.889Z,8.88
2019-03-19T04:05:17.702Z,10.75
2019-03-19T04:06:22.688Z,9.03
2019-03-19T04:07:28.044Z,12.37
2019-03-19T04:08:34.085Z,9.80
2019-03-19T04:09:39.376Z,13.22
2019-03-19T04:10:44.410Z,12.00
2019-03-19T04:11:49.463Z,11.35
2019-03-19T04:12:54.487Z,10.30
2019-03-19T04:14:00.036Z,7.37
2019-03-19T04:15:05.268Z,13.53
2019-03-19T04:16:10.228Z,10.35
2019-03-19T04:17:15.484Z,11.22
2019-03-19T04:18:21.106Z,11.12
2019-03-19T04:19:26.126Z,11.53
2019-03-19T04:20:31.696Z,13.40
2019-03-19T04:21:36.409Z,12.18
2019-03-19T04:22:41.646Z,11.05
2019-03-19T04:23:46.345Z,12.33
2019-03-19T04:24:51.357Z,10.20
2019-03-19T04:25:56.394Z,11.83
2019-03-19T04:27:14.890Z,12.18
2019-03-19T04:28:08.193Z,13.13
2019-03-19T04:29:13.806Z,14.35
2019-03-19T04:30:18.259Z,10.88
2019-03-19T04:31:23.656Z,10.32
2019-03-19T04:32:28.622Z,10.80
2019-03-19T04:33:33.915Z,13.88
2019-03-19T04:34:39.571Z,8.70
2019-03-19T04:35:44.799Z,10.30
2019-03-19T04:36:50.205Z,13.50
2019-03-19T04:37:55.545Z,11.78
2019-03-19T04:39:01.124Z,12.23
2019-03-19T04:40:06.186Z,9.00
2019-03-19T04:41:10.870Z,14.85
2019-03-19T04:42:16.182Z,12.90
2019-03-19T04:43:21.198Z,12.65
2019-03-19T04:44:26.200Z,14.33
2019-03-19T04:45:31.754Z,8.40
2019-03-19T04:46:37.027Z,13.03
2019-03-19T04:47:42.390Z,11.25
2019-03-19T04:48:48.050Z,12.40
2019-03-19T04:49:53.590Z,9.75
2019-03-19T04:50:58.609Z,12.88
2019-03-19T04:52:04.195Z,10.25
2019-03-19T04:53:09.191Z,10.32
2019-03-19T04:54:14.445Z,13.78
2019-03-19T04:55:19.464Z,10.70
2019-03-19T04:56:24.735Z,7.47
2019-03-19T04:57:29.463Z,9.40
2019-03-19T04:58:34.777Z,9.03
2019-03-19T04:59:40.066Z,14.70
2019-03-19T05:00:44.829Z,11.97
2019-03-19T05:01:49.805Z,11.40
2019-03-19T05:02:55.348Z,8.20
2019-03-19T05:04:00.884Z,10.48
2019-03-19T05:05:06.188Z,14.53
2019-03-19T05:06:11.318Z,14.40
2019-03-19T05:07:19.931Z,11.55
2019-03-19T05:08:24.976Z,12.03
2019-03-19T05:09:29.945Z,12.15
2019-03-19T05:10:34.655Z,12.43
2019-03-19T05:11:39.620Z,12.10
2019-03-19T05:12:44.684Z,10.08
2019-03-19T05:13:49.335Z,15.15
2019-03-19T05:14:54.335Z,13.68
2019-03-19T05:15:59.578Z,9.88
2019-03-19T05:17:05.106Z,11.65
2019-03-19T05:18:10.496Z,12.70
2019-03-19T05:19:15.490Z,12.90
2019-03-19T05:20:20.200Z,10.55
2019-03-19T05:21:25.550Z,9.83
2019-03-19T05:22:30.969Z,13.90
2019-03-19T05:23:35.949Z,11.43
2019-03-19T05:24:41.278Z,12.35
2019-03-19T05:25:46.021Z,12.82
2019-03-19T05:26:51.025Z,14.78
2019-03-19T05:27:57.462Z,12.07
2019-03-19T05:29:02.794Z,10.70
2019-03-19T05:30:08.693Z,12.20
2019-03-19T05:31:13.967Z,10.55
2019-03-19T05:32:19.248Z,12.85
2019-03-19T05:33:24.251Z,13.20
2019-03-19T05:34:29.528Z,10.95
2019-03-19T05:35:34.522Z,8.58
2019-03-19T05:36:39.271Z,11.33
2019-03-19T05:37:44.620Z,13.13
2019-03-19T05:38:49.582Z,14.05
2019-03-19T05:39:55.085Z,12.07
2019-03-19T05:41:00.437Z,13.85
2019-03-19T05:42:05.689Z,13.93
2019-03-19T05:43:10.810Z,9.23
2019-03-19T05:44:16.090Z,11.83
2019-03-19T05:45:21.361Z,16.25
2019-03-19T05:46:27.110Z,11.68
2019-03-19T05:47:37.061Z,14.55
2019-03-19T05:48:38.526Z,11.38
2019-03-19T05:49:43.730Z,11.10
2019-03-19T05:50:49.348Z,8.00
2019-03-19T05:51:57.671Z,12.15
2019-03-19T05:53:02.730Z,11.35
2019-03-19T05:54:07.465Z,9.28
2019-03-19T05:55:12.307Z,10.60
2019-03-19T05:56:17.033Z,8.78
2019-03-19T05:57:22.307Z,15.38
2019-03-19T05:58:27.047Z,13.13
2019-03-19T05:59:32.324Z,12.70
2019-03-19T06:00:37.703Z,11.73
2019-03-19T06:01:42.492Z,11.43
2019-03-19T06:02:48.045Z,10.45
2019-03-19T06:03:53.093Z,12.98
2019-03-19T06:04:57.544Z,11.97
2019-03-19T06:06:02.815Z,11.78
2019-03-19T06:07:07.805Z,10.70
2019-03-19T06:08:13.366Z,11.03
2019-03-19T06:09:18.613Z,13.45
2019-03-19T06:10:25.854Z,14.30
2019-03-19T06:11:30.343Z,15.60
2019-03-19T06:12:35.609Z,11.38
2019-03-19T06:13:40.564Z,15.13
2019-03-19T06:14:45.295Z,14.25
2019-03-19T06:15:50.798Z,12.82
2019-03-19T06:16:55.553Z,9.88
2019-03-19T06:18:01.243Z,11.93
2019-03-19T06:19:06.214Z,13.10
2019-03-19T06:20:12.097Z,10.88
2019-03-19T06:21:17.052Z,13.45
2019-03-19T06:22:22.066Z,14.30
2019-03-19T06:23:27.055Z,14.23
2019-03-19T06:24:31.774Z,18.00
2019-03-19T06:25:37.041Z,11.68
2019-03-19T06:26:42.516Z,11.08
2019-03-19T06:27:47.557Z,14.33
2019-03-19T06:28:53.162Z,15.05
2019-03-19T06:29:58.426Z,11.73
2019-03-19T06:31:03.675Z,11.18
2019-03-19T06:32:08.458Z,12.93
2019-03-19T06:33:13.502Z,11.33
2019-03-19T06:34:18.569Z,17.17
2019-03-19T06:35:23.923Z,12.78
2019-03-19T06:36:28.895Z,18.50
2019-03-19T06:37:33.672Z,16.97
2019-03-19T06:38:38.386Z,19.10
2019-03-19T06:39:43.397Z,15.23
2019-03-19T06:40:48.066Z,16.25
2019-03-19T06:41:53.687Z,17.57
2019-03-19T06:42:59.058Z,16.42
2019-03-19T06:44:04.055Z,15.72
2019-03-19T06:45:10.576Z,12.13
2019-03-19T06:46:15.264Z,13.80
2019-03-19T06:47:20.340Z,15.78
2019-03-19T06:48:25.303Z,16.12
2019-03-19T06:49:30.570Z,15.18
2019-03-19T06:50:44.803Z,12.75
2019-03-19T06:51:42.707Z,14.35
2019-03-19T06:52:47.957Z,12.88
2019-03-19T06:53:52.957Z,11.25
2019-03-19T06:54:58.059Z,12.20
2019-03-19T06:56:03.318Z,13.98
2019-03-19T06:57:08.371Z,12.33
2019-03-19T06:58:12.843Z,17.85
2019-03-19T06:59:18.172Z,15.63
2019-03-19T07:00:23.111Z,16.07
2019-03-19T07:01:27.797Z,19.52
2019-03-19T07:02:33.041Z,17.17
2019-03-19T07:03:38.523Z,17.15
2019-03-19T07:04:43.794Z,17.35
2019-03-19T07:05:48.781Z,13.03
2019-03-19T07:06:53.685Z,12.45
2019-03-19T07:07:58.918Z,12.20
2019-03-19T07:09:04.650Z,12.78
2019-03-19T07:10:10.410Z,15.55
2019-03-19T07:11:15.370Z,17.07
2019-03-19T07:12:20.610Z,18.98
2019-03-19T07:13:26.149Z,15.32
2019-03-19T07:14:31.185Z,13.50
2019-03-19T07:15:36.241Z,15.35
2019-03-19T07:16:41.516Z,15.43
2019-03-19T07:17:46.518Z,14.00
2019-03-19T07:18:51.718Z,13.68
2019-03-19T07:19:56.603Z,16.48
2019-03-19T07:21:01.998Z,14.25
2019-03-19T07:22:06.983Z,14.28
2019-03-19T07:23:12.332Z,15.20
2019-03-19T07:24:17.929Z,11.83
2019-03-19T07:25:22.944Z,15.10
2019-03-19T07:26:27.936Z,14.80
2019-03-19T07:27:33.025Z,14.00
2019-03-19T07:28:37.917Z,14.90
2019-03-19T07:29:43.201Z,15.10
2019-03-19T07:30:48.743Z,14.25
2019-03-19T07:31:53.532Z,11.28
2019-03-19T07:32:58.893Z,12.58
2019-03-19T07:34:03.653Z,10.23
2019-03-19T07:35:09.585Z,13.58
2019-03-19T07:36:15.143Z,12.63
2019-03-19T07:37:20.700Z,12.28
2019-03-19T07:38:26.108Z,15.85
2019-03-19T07:39:30.912Z,12.95
2019-03-19T07:40:36.247Z,12.13
2019-03-19T07:41:41.505Z,11.43
2019-03-19T07:42:46.761Z,11.80
2019-03-19T07:43:52.138Z,14.87
2019-03-19T07:44:56.754Z,17.23
2019-03-19T07:46:02.032Z,16.40
2019-03-19T07:47:06.765Z,11.65
2019-03-19T07:48:12.030Z,14.15
2019-03-19T07:49:17.555Z,13.22
2019-03-19T07:50:23.049Z,12.15
2019-03-19T07:51:28.310Z,12.00
2019-03-19T07:52:33.372Z,14.13
2019-03-19T07:53:38.355Z,10.28
2019-03-19T07:54:43.040Z,12.18
2019-03-19T07:55:47.754Z,18.73
2019-03-19T07:56:53.286Z,11.68
2019-03-19T07:57:58.368Z,14.05
2019-03-19T07:59:03.924Z,15.23
2019-03-19T08:00:09.522Z,10.85
2019-03-19T08:01:14.504Z,12.10
2019-03-19T08:02:18.991Z,10.78
2019-03-19T08:03:24.056Z,14.90
2019-03-19T08:04:29.057Z,18.95
2019-03-19T08:05:34.426Z,13.48
2019-03-19T08:06:39.354Z,15.20
2019-03-19T08:07:44.671Z,12.70
2019-03-19T08:08:50.061Z,14.38
2019-03-19T08:09:55.352Z,13.90
2019-03-19T08:11:00.112Z,17.25
2019-03-19T08:12:04.795Z,15.32
2019-03-19T08:13:09.782Z,13.48
2019-03-19T08:14:14.317Z,14.03
2019-03-19T08:15:19.263Z,12.05
2019-03-19T08:16:27.645Z,10.95
2019-03-19T08:17:31.832Z,13.95
2019-03-19T08:18:37.073Z,11.25
2019-03-19T08:19:41.768Z,13.65
2019-03-19T08:20:47.008Z,11.50
2019-03-19T08:21:52.278Z,12.37
2019-03-19T08:22:57.278Z,13.28
2019-03-19T08:24:02.547Z,15.93
2019-03-19T08:25:08.807Z,12.00
2019-03-19T08:26:14.024Z,9.38
2019-03-19T08:27:19.240Z,14.33
2019-03-19T08:28:24.804Z,11.95
2019-03-19T08:29:30.072Z,11.05
2019-03-19T08:30:35.328Z,12.98
2019-03-19T08:31:40.356Z,14.18
2019-03-19T08:32:45.624Z,13.35
2019-03-19T08:33:51.029Z,13.35
2019-03-19T08:34:56.383Z,13.60
2019-03-19T08:36:08.964Z,11.25
2019-03-19T08:37:07.137Z,14.35
2019-03-19T08:38:12.437Z,17.20
2019-03-19T08:39:17.155Z,13.90
2019-03-19T08:40:22.442Z,14.87
2019-03-19T08:41:27.597Z,15.15
2019-03-19T08:42:32.577Z,11.18
2019-03-19T08:43:37.383Z,10.53
2019-03-19T08:44:42.361Z,16.73
2019-03-19T08:45:47.361Z,11.83
2019-03-19T08:46:52.130Z,11.18
2019-03-19T08:47:57.418Z,16.27
2019-03-19T08:49:02.652Z,13.83
2019-03-19T08:50:08.325Z,10.32
2019-03-19T08:51:13.384Z,12.45
2019-03-19T08:52:18.120Z,10.25
2019-03-19T08:53:23.393Z,11.95
2019-03-19T08:54:28.962Z,12.93
2019-03-19T08:55:34.306Z,14.38
2019-03-19T08:56:39.032Z,11.93
2019-03-19T08:57:44.054Z,14.10
2019-03-19T08:58:49.405Z,15.23
2019-03-19T08:59:57.111Z,11.63
2019-03-19T09:01:01.679Z,12.47
2019-03-19T09:02:06.397Z,10.40
2019-03-19T09:03:11.191Z,8.90
2019-03-19T09:04:16.211Z,14.55
2019-03-19T09:05:21.201Z,12.43
2019-03-19T09:06:26.428Z,11.00
2019-03-19T09:07:31.266Z,12.63
2019-03-19T09:08:36.518Z,12.37
2019-03-19T09:09:41.840Z,11.00
2019-03-19T09:10:47.159Z,12.80
2019-03-19T09:11:52.191Z,10.03
2019-03-19T09:12:57.265Z,9.80
2019-03-19T09:14:02.624Z,12.23
2019-03-19T09:15:08.925Z,11.20
2019-03-19T09:16:13.379Z,11.68
2019-03-19T09:17:18.631Z,14.28
2019-03-19T09:18:23.706Z,10.35
2019-03-19T09:19:28.786Z,10.10
2019-03-19T09:20:33.792Z,11.93
2019-03-19T09:21:38.969Z,11.33
2019-03-19T09:22:43.974Z,10.82
2019-03-19T09:23:48.930Z,11.18
2019-03-19T09:24:54.523Z,10.53
2019-03-19T09:25:59.247Z,8.30
2019-03-19T09:27:04.111Z,12.70
2019-03-19T09:28:09.179Z,11.22
2019-03-19T09:29:16.995Z,11.57
2019-03-19T09:30:20.933Z,12.65
2019-03-19T09:31:26.412Z,10.48
2019-03-19T09:32:31.992Z,9.35
2019-03-19T09:33:37.250Z,10.48
2019-03-19T09:34:42.248Z,11.28
2019-03-19T09:35:47.212Z,13.28
2019-03-19T09:36:57.183Z,11.60
2019-03-19T09:37:59.356Z,9.20
2019-03-19T09:39:05.798Z,6.95
2019-03-19T09:40:12.187Z,11.25
2019-03-19T09:41:17.465Z,9.03
2019-03-19T09:42:22.259Z,8.80
2019-03-19T09:43:27.256Z,11.18
2019-03-19T09:44:32.019Z,8.08
2019-03-19T09:45:36.711Z,9.25
2019-03-19T09:46:41.647Z,8.50
2019-03-19T09:47:46.576Z,11.45
2019-03-19T09:48:51.739Z,10.68
2019-03-19T09:49:56.733Z,9.40
2019-03-19T09:51:01.749Z,7.95
2019-03-19T09:52:06.736Z,9.90
2019-03-19T09:53:11.727Z,10.00
2019-03-19T09:54:19.444Z,9.73
2019-03-19T09:55:23.947Z,10.03
2019-03-19T09:56:29.186Z,8.53
2019-03-19T09:57:34.218Z,7.85
2019-03-19T09:58:39.180Z,7.90
2019-03-19T09:59:44.650Z,8.75
2019-03-19T10:00:49.966Z,8.45
2019-03-19T10:01:55.001Z,9.58
2019-03-19T10:03:00.008Z,8.73
2019-03-19T10:04:04.983Z,8.53
2019-03-19T10:05:09.664Z,8.78
2019-03-19T10:06:14.712Z,10.53
2019-03-19T10:07:19.667Z,11.22
2019-03-19T10:08:24.636Z,8.70
2019-03-19T10:09:29.657Z,6.95
2019-03-19T10:10:34.683Z,9.10
2019-03-19T10:11:40.305Z,13.18
2019-03-19T10:12:45.293Z,7.97
2019-03-19T10:13:50.112Z,7.22
2019-03-19T10:14:54.882Z,7.75
2019-03-19T10:15:59.540Z,9.88
2019-03-19T10:17:04.505Z,10.72
2019-03-19T10:18:09.786Z,6.90
2019-03-19T10:19:14.486Z,7.78
2019-03-19T10:20:19.214Z,9.25
2019-03-19T10:21:24.216Z,7.35
2019-03-19T10:22:29.442Z,7.25
2019-03-19T10:23:34.114Z,10.55
2019-03-19T10:24:39.526Z,9.35
2019-03-19T10:25:44.255Z,7.12
2019-03-19T10:26:49.520Z,10.13
2019-03-19T10:27:55.319Z,9.05
2019-03-19T10:29:00.058Z,7.67
2019-03-19T10:30:05.576Z,8.33
2019-03-19T10:31:11.179Z,7.42
2019-03-19T10:32:16.476Z,8.70
2019-03-19T10:33:21.162Z,6.33
2019-03-19T10:34:26.149Z,9.35
2019-03-19T10:35:31.166Z,8.25
2019-03-19T10:36:35.906Z,6.30
2019-03-19T10:37:40.928Z,9.08
2019-03-19T10:38:45.998Z,9.53
2019-03-19T10:39:51.397Z,9.03
2019-03-19T10:40:56.674Z,7.62
2019-03-19T10:42:01.937Z,12.00
2019-03-19T10:43:07.257Z,5.67
2019-03-19T10:44:12.248Z,8.08
2019-03-19T10:45:16.982Z,10.30
2019-03-19T10:46:21.944Z,8.03
2019-03-19T10:47:26.934Z,6.12
2019-03-19T10:48:32.031Z,7.30
2019-03-19T10:49:37.340Z,8.10
2019-03-19T10:50:42.065Z,7.00
2019-03-19T10:51:47.123Z,7.72
2019-03-19T10:52:52.384Z,7.40
2019-03-19T10:53:57.095Z,8.15
2019-03-19T10:55:01.846Z,7.25
2019-03-19T10:56:07.185Z,6.87
2019-03-19T10:57:12.128Z,7.33
2019-03-19T10:58:16.923Z,9.58
2019-03-19T10:59:22.281Z,7.95
2019-03-19T11:00:27.126Z,9.28
2019-03-19T11:01:32.430Z,10.00
2019-03-19T11:02:36.893Z,7.72
2019-03-19T11:03:42.214Z,10.43
2019-03-19T11:04:46.662Z,6.28
2019-03-19T11:05:52.160Z,7.55
2019-03-19T11:06:56.871Z,10.50
2019-03-19T11:08:01.909Z,9.78
2019-03-19T11:09:08.720Z,8.13
2019-03-19T11:10:13.858Z,7.97
2019-03-19T11:11:18.544Z,8.40
2019-03-19T11:12:23.591Z,10.45
2019-03-19T11:13:28.692Z,7.70
2019-03-19T11:14:33.994Z,8.98
2019-03-19T11:15:39.286Z,6.42
2019-03-19T11:16:43.976Z,7.35
2019-03-19T11:17:48.935Z,8.78
2019-03-19T11:18:53.922Z,8.93
2019-03-19T11:19:58.908Z,8.55
2019-03-19T11:21:03.596Z,7.42
2019-03-19T11:22:08.340Z,10.75
2019-03-19T11:23:13.911Z,7.35
2019-03-19T11:24:19.456Z,9.53
2019-03-19T11:25:24.293Z,7.58
2019-03-19T11:26:29.038Z,6.67
2019-03-19T11:27:33.997Z,8.45
2019-03-19T11:28:38.972Z,8.85
2019-03-19T11:29:43.656Z,6.92
2019-03-19T11:30:48.333Z,9.90
2019-03-19T11:31:53.120Z,7.00
2019-03-19T11:32:58.253Z,11.63
2019-03-19T11:34:03.253Z,5.60
2019-03-19T11:35:08.607Z,9.25
2019-03-19T11:36:13.969Z,6.28
2019-03-19T11:37:18.968Z,6.70
2019-03-19T11:38:23.992Z,7.85
2019-03-19T11:39:29.562Z,8.13
2019-03-19T11:40:34.558Z,7.40
2019-03-19T11:41:40.110Z,7.35
2019-03-19T11:42:44.811Z,7.12
2019-03-19T11:43:49.821Z,5.67
2019-03-19T11:44:55.565Z,5.65
2019-03-19T11:46:00.516Z,9.00
2019-03-19T11:47:05.500Z,6.47
2019-03-19T11:48:10.196Z,6.17
2019-03-19T11:49:15.181Z,6.12
2019-03-19T11:50:21.331Z,9.08
2019-03-19T11:51:26.239Z,7.60
2019-03-19T11:52:31.492Z,6.12
2019-03-19T11:53:37.025Z,7.85
2019-03-19T11:54:41.783Z,7.58
2019-03-19T11:55:46.983Z,5.25
2019-03-19T11:56:52.026Z,9.28
2019-03-19T11:57:59.576Z,6.12
2019-03-19T11:59:04.276Z,7.65
2019-03-19T12:00:12.854Z,9.25
2019-03-19T12:01:17.907Z,5.03
2019-03-19T12:02:26.154Z,8.45
2019-03-19T12:03:29.490Z,7.58
2019-03-19T12:04:34.725Z,7.83
2019-03-19T12:05:39.540Z,5.85
2019-03-19T12:06:44.531Z,5.25
2019-03-19T12:07:49.891Z,9.00
2019-03-19T12:08:54.876Z,4.50
2019-03-19T12:10:00.374Z,6.80
2019-03-19T12:11:05.331Z,8.05
2019-03-19T12:12:11.628Z,7.83
2019-03-19T12:13:16.947Z,8.25
2019-03-19T12:14:21.943Z,6.45
2019-03-19T12:15:26.924Z,8.63
2019-03-19T12:16:32.201Z,7.95
2019-03-19T12:17:37.220Z,6.03
2019-03-19T12:18:42.322Z,6.95
2019-03-19T12:19:47.363Z,7.25
2019-03-19T12:20:52.041Z,6.35
2019-03-19T12:21:56.758Z,8.25
2019-03-19T12:23:01.739Z,8.55
2019-03-19T12:24:06.751Z,10.23
2019-03-19T12:25:11.364Z,7.47
2019-03-19T12:26:16.105Z,5.65
2019-03-19T12:27:21.174Z,6.42
2019-03-19T12:28:25.609Z,8.38
2019-03-19T12:29:30.859Z,8.90
2019-03-19T12:30:35.296Z,7.37
2019-03-19T12:31:40.312Z,7.80
2019-03-19T12:32:45.603Z,7.87
2019-03-19T12:33:50.382Z,7.97
2019-03-19T12:34:55.069Z,7.20
2019-03-19T12:35:59.812Z,6.97
2019-03-19T12:37:04.940Z,9.15
2019-03-19T12:38:10.196Z,8.85
2019-03-19T12:39:15.739Z,9.88
2019-03-19T12:40:20.765Z,6.50
2019-03-19T12:41:26.010Z,6.47
2019-03-19T12:42:30.980Z,8.03
2019-03-19T12:43:36.806Z,5.97
2019-03-19T12:44:41.764Z,7.42
2019-03-19T12:45:47.047Z,5.50
2019-03-19T12:46:51.830Z,5.65
2019-03-19T12:47:56.791Z,5.00
2019-03-19T12:49:01.671Z,8.13
2019-03-19T12:50:07.318Z,7.55
2019-03-19T12:51:12.308Z,6.28
2019-03-19T12:52:17.292Z,7.92
2019-03-19T12:53:22.365Z,8.10
2019-03-19T12:54:27.630Z,7.87
2019-03-19T12:55:33.184Z,8.98
2019-03-19T12:56:38.177Z,5.35
2019-03-19T12:57:42.929Z,8.00
2019-03-19T12:58:47.940Z,7.87
2019-03-19T12:59:52.648Z,8.03
2019-03-19T13:00:57.416Z,5.85
2019-03-19T13:02:02.075Z,5.80
2019-03-19T13:03:06.761Z,5.58
2019-03-19T13:04:11.872Z,5.87
2019-03-19T13:05:17.122Z,6.53
2019-03-19T13:06:22.670Z,4.90
2019-03-19T13:07:27.485Z,5.35
2019-03-19T13:08:31.956Z,5.30
2019-03-19T13:09:36.685Z,6.75
2019-03-19T13:10:41.944Z,5.47
2019-03-19T13:11:46.957Z,8.70
2019-03-19T13:12:52.313Z,5.85
2019-03-19T13:13:57.683Z,5.87
2019-03-19T13:15:02.375Z,5.47
2019-03-19T13:16:07.333Z,6.83
2019-03-19T13:17:11.861Z,7.12
2019-03-19T13:18:17.400Z,6.35
2019-03-19T13:19:22.219Z,5.55
2019-03-19T13:20:26.912Z,6.05
2019-03-19T13:21:31.884Z,7.42
2019-03-19T13:22:37.122Z,8.35
2019-03-19T13:23:41.861Z,5.80
2019-03-19T13:24:46.305Z,5.60
2019-03-19T13:25:50.988Z,6.55
2019-03-19T13:26:56.067Z,5.37
2019-03-19T13:28:00.789Z,8.18
2019-03-19T13:29:06.096Z,7.72
2019-03-19T13:30:13.760Z,7.78
2019-03-19T13:31:18.991Z,8.70
2019-03-19T13:32:23.818Z,5.83
2019-03-19T13:33:28.831Z,7.12
2019-03-19T13:34:34.416Z,6.22
2019-03-19T13:35:39.158Z,5.97
2019-03-19T13:36:43.598Z,7.90
2019-03-19T13:37:48.277Z,6.25
2019-03-19T13:38:53.418Z,9.68
2019-03-19T13:39:58.412Z,6.17
2019-03-19T13:41:03.708Z,6.22
2019-03-19T13:42:08.406Z,7.20
2019-03-19T13:43:13.414Z,5.45
2019-03-19T13:44:18.151Z,5.92
2019-03-19T13:45:22.969Z,5.35
2019-03-19T13:46:28.529Z,6.20
2019-03-19T13:47:33.761Z,8.05
2019-03-19T13:48:39.003Z,8.45
2019-03-19T13:49:43.988Z,10.68
2019-03-19T13:50:49.276Z,8.65
2019-03-19T13:51:54.813Z,8.70
2019-03-19T13:52:59.508Z,5.45
2019-03-19T13:54:04.001Z,6.30
2019-03-19T13:55:09.801Z,8.90
2019-03-19T13:56:14.763Z,8.65
2019-03-19T13:57:19.827Z,8.68
2019-03-19T13:58:27.139Z,5.70
2019-03-19T13:59:31.807Z,6.25
2019-03-19T14:00:36.498Z,6.17
2019-03-19T14:01:41.214Z,6.60
2019-03-19T14:02:46.301Z,6.72
2019-03-19T14:03:52.594Z,6.55
2019-03-19T14:04:57.403Z,9.25
2019-03-19T14:06:02.106Z,8.45
2019-03-19T14:07:06.860Z,8.58
2019-03-19T14:08:11.393Z,8.25
2019-03-19T14:09:16.212Z,6.37
2019-03-19T14:10:21.480Z,8.13